createdAt,value
2018-05-19T00:00:17.310Z,12.57
2018-05-19T00:02:44.697Z,13.50
2018-05-19T00:05:12.337Z,13.43
2018-05-19T00:07:40.299Z,13.80
2018-05-19T00:10:08.967Z,13.80
2018-05-19T00:12:36.484Z,14.13
2018-05-19T00:15:03.839Z,12.93
2018-05-19T00:17:31.878Z,13.70
2018-05-19T00:22:31.989Z,15.20
2018-05-19T00:24:59.750Z,14.43
2018-05-19T00:29:59.708Z,14.93
2018-05-19T00:32:27.109Z,14.20
2018-05-19T00:34:54.538Z,13.83
2018-05-19T00:42:25.953Z,15.57
2018-05-19T00:44:53.336Z,17.73
2018-05-19T00:47:20.689Z,16.57
2018-05-19T00:49:48.063Z,15.30
2018-05-19T00:52:15.510Z,15.33
2018-05-19T00:54:49.775Z,16.10
2018-05-19T00:59:48.838Z,15.67
2018-05-19T01:02:16.153Z,16.13
2018-05-19T01:04:44.638Z,15.80
2018-05-19T01:07:12.094Z,16.20
2018-05-19T01:09:39.618Z,15.73
2018-05-19T01:12:07.321Z,16.30
2018-05-19T01:14:34.695Z,16.87
2018-05-19T01:17:02.046Z,17.33
2018-05-19T01:22:00.970Z,16.60
2018-05-19T01:27:00.449Z,14.47
2018-05-19T01:29:27.755Z,16.17
2018-05-19T01:31:55.132Z,17.33
2018-05-19T01:36:56.134Z,16.70
2018-05-19T01:41:56.251Z,16.57
2018-05-19T01:44:23.625Z,17.10
2018-05-19T01:46:50.947Z,16.90
2018-05-19T01:49:19.887Z,17.27
2018-05-19T01:51:47.230Z,16.43
2018-05-19T01:54:14.662Z,15.47
2018-05-19T01:56:42.109Z,16.63
2018-05-19T01:59:11.103Z,17.10
2018-05-19T02:01:38.719Z,16.33
2018-05-19T02:04:06.073Z,17.83
2018-05-19T02:09:07.061Z,16.63
2018-05-19T02:11:34.434Z,16.77
2018-05-19T02:14:01.902Z,17.00
2018-05-19T02:16:29.387Z,17.87
2018-05-19T02:21:29.777Z,19.60
2018-05-19T02:23:57.118Z,19.57
2018-05-19T02:26:24.484Z,19.80
2018-05-19T02:28:51.827Z,19.00
2018-05-19T02:31:19.180Z,20.83
2018-05-19T02:36:19.671Z,17.13
2018-05-19T02:38:50.507Z,16.70
2018-05-19T02:41:17.866Z,17.50
2018-05-19T02:43:45.439Z,18.80
2018-05-19T02:46:12.965Z,19.00
2018-05-19T02:48:40.754Z,18.67
2018-05-19T02:51:08.800Z,17.83
2018-05-19T02:53:36.108Z,19.60
2018-05-19T02:56:03.513Z,17.27
2018-05-19T02:58:31.047Z,20.57
2018-05-19T03:00:58.474Z,20.30
2018-05-19T03:03:26.108Z,20.40
2018-05-19T03:05:54.415Z,20.23
2018-05-19T03:08:22.101Z,19.10
2018-05-19T03:10:49.475Z,20.63
2018-05-19T03:13:16.790Z,19.53
2018-05-19T03:18:16.328Z,19.30
2018-05-19T03:20:43.660Z,17.87
2018-05-19T03:25:43.677Z,20.10
2018-05-19T03:28:11.228Z,19.30
2018-05-19T03:30:40.184Z,17.60
2018-05-19T03:33:07.680Z,19.70
2018-05-19T03:35:35.076Z,18.60
2018-05-19T03:38:02.398Z,17.43
2018-05-19T03:40:29.855Z,19.17
2018-05-19T03:42:57.198Z,18.60
2018-05-19T03:45:24.538Z,19.50
2018-05-19T03:47:51.871Z,19.73
2018-05-19T03:50:19.172Z,19.77
2018-05-19T03:52:46.523Z,19.83
2018-05-19T03:55:13.932Z,20.57
2018-05-19T03:57:49.188Z,20.47
2018-05-19T04:00:34.255Z,19.97
2018-05-19T04:03:01.727Z,20.73
2018-05-19T04:05:29.206Z,18.73
2018-05-19T04:07:57.145Z,19.80
2018-05-19T04:10:24.535Z,17.47
2018-05-19T04:15:24.196Z,18.23
2018-05-19T04:17:52.348Z,18.63
2018-05-19T04:20:21.927Z,18.93
2018-05-19T04:22:49.230Z,17.43
2018-05-19T04:27:48.237Z,17.70
2018-05-19T04:30:15.567Z,20.03
2018-05-19T04:32:43.161Z,22.80
2018-05-19T04:37:42.494Z,15.90
2018-05-19T04:40:10.056Z,17.53
2018-05-19T04:42:37.589Z,18.27
2018-05-19T04:45:08.904Z,17.30
2018-05-19T04:47:36.283Z,17.33
2018-05-19T04:50:03.673Z,17.40
2018-05-19T04:55:05.019Z,18.47
2018-05-19T04:57:32.445Z,20.50
2018-05-19T04:59:59.930Z,19.07
2018-05-19T05:02:27.294Z,18.67
2018-05-19T05:04:54.646Z,19.97
2018-05-19T05:09:53.570Z,18.30
2018-05-19T05:14:52.443Z,17.63
2018-05-19T05:17:19.757Z,17.67
2018-05-19T05:19:49.092Z,18.27
2018-05-19T05:22:16.854Z,18.43
2018-05-19T05:24:44.251Z,16.90
2018-05-19T05:27:11.775Z,17.87
2018-05-19T05:29:39.231Z,20.00
2018-05-19T05:34:38.461Z,18.27
2018-05-19T05:37:05.911Z,15.60
2018-05-19T05:39:33.244Z,17.63
2018-05-19T05:42:00.680Z,16.80
2018-05-19T05:49:32.062Z,16.43
2018-05-19T05:51:59.683Z,17.13
2018-05-19T05:54:28.972Z,16.80
2018-05-19T05:56:56.375Z,16.70
2018-05-19T05:59:23.738Z,17.07
2018-05-19T06:04:26.576Z,16.13
2018-05-19T06:06:57.607Z,16.80
2018-05-19T06:09:24.976Z,17.37
2018-05-19T06:14:23.882Z,16.53
2018-05-19T06:16:51.194Z,17.93
2018-05-19T06:19:18.523Z,18.40
2018-05-19T06:21:46.405Z,16.87
2018-05-19T06:24:15.484Z,15.40
2018-05-19T06:26:42.866Z,17.60
2018-05-19T06:29:10.348Z,18.43
2018-05-19T06:31:38.070Z,15.70
2018-05-19T06:34:05.519Z,16.73
2018-05-19T06:39:05.823Z,17.37
2018-05-19T06:44:04.910Z,17.40
2018-05-19T06:46:41.295Z,16.80
2018-05-19T06:51:44.270Z,16.70
2018-05-19T06:56:45.747Z,16.57
2018-05-19T07:04:24.505Z,16.73
2018-05-19T07:17:07.567Z,19.50
2018-05-19T07:19:38.635Z,16.90
2018-05-19T07:22:05.962Z,18.37
2018-05-19T07:24:34.120Z,18.80
2018-05-19T07:27:01.467Z,16.83
2018-05-19T07:29:39.575Z,17.00
2018-05-19T07:32:06.973Z,17.23
2018-05-19T07:34:35.359Z,17.30
2018-05-19T07:37:04.484Z,20.73
2018-05-19T07:42:09.764Z,17.90
2018-05-19T07:44:37.503Z,17.83
2018-05-19T07:47:05.112Z,18.90
2018-05-19T07:52:04.133Z,18.10
2018-05-19T07:54:33.741Z,17.93
2018-05-19T07:57:01.096Z,16.77
2018-05-19T08:02:02.288Z,18.70
2018-05-19T08:04:30.356Z,19.50
2018-05-19T08:06:58.019Z,18.40
2018-05-19T08:11:57.943Z,18.10
2018-05-19T08:14:25.253Z,18.27
2018-05-19T08:19:24.151Z,20.27
2018-05-19T08:21:51.497Z,20.17
2018-05-19T08:24:18.975Z,17.83
2018-05-19T08:26:46.515Z,18.93
2018-05-19T08:29:14.877Z,16.83
2018-05-19T08:31:42.334Z,18.40
2018-05-19T08:36:43.972Z,19.23
2018-05-19T08:44:15.466Z,18.27
2018-05-19T08:46:44.553Z,16.57
2018-05-19T08:49:11.917Z,17.57
2018-05-19T08:51:41.551Z,17.60
2018-05-19T08:54:09.394Z,16.40
2018-05-19T08:56:37.808Z,18.27
2018-05-19T08:59:05.222Z,18.20
2018-05-19T09:01:32.965Z,13.83
2018-05-19T09:04:00.973Z,17.20
2018-05-19T09:06:28.591Z,17.53
2018-05-19T09:08:55.971Z,18.50
2018-05-19T09:11:23.451Z,14.30
2018-05-19T09:16:22.434Z,15.97
2018-05-19T09:18:49.918Z,15.30
2018-05-19T09:21:19.134Z,13.70
2018-05-19T09:23:50.696Z,13.67
2018-05-19T09:26:18.080Z,13.50
2018-05-19T09:28:45.527Z,14.37
2018-05-19T09:31:13.168Z,16.73
2018-05-19T09:33:41.088Z,14.30
2018-05-19T09:36:08.764Z,14.67
2018-05-19T09:38:38.706Z,16.13
2018-05-19T09:41:06.087Z,14.77
2018-05-19T09:46:15.296Z,14.80
2018-05-19T09:48:42.814Z,15.30
2018-05-19T09:51:10.354Z,14.77
2018-05-19T09:53:40.146Z,16.13
2018-05-19T09:56:07.822Z,15.60
2018-05-19T09:58:36.844Z,16.17
2018-05-19T10:01:04.481Z,16.10
2018-05-19T10:03:31.889Z,16.50
2018-05-19T10:08:30.946Z,14.13
2018-05-19T10:10:58.255Z,14.97
2018-05-19T10:13:25.697Z,14.73
2018-05-19T10:15:53.106Z,11.93
2018-05-19T10:18:20.440Z,12.63
2018-05-19T10:20:48.078Z,13.03
2018-05-19T10:23:15.553Z,12.97
2018-05-19T10:25:42.979Z,14.33
2018-05-19T10:28:10.838Z,12.80
2018-05-19T10:30:38.163Z,15.00
2018-05-19T10:33:05.818Z,14.87
2018-05-19T10:35:34.015Z,13.13
2018-05-19T10:38:01.483Z,14.90
2018-05-19T10:43:00.361Z,17.37
2018-05-19T10:45:27.735Z,18.00
2018-05-19T10:47:55.089Z,14.17
2018-05-19T10:50:22.437Z,16.20
2018-05-19T10:52:49.841Z,14.83
2018-05-19T10:55:17.348Z,16.53
2018-05-19T11:00:17.174Z,16.57
2018-05-19T11:08:02.721Z,16.73
2018-05-19T11:10:30.151Z,16.10
2018-05-19T11:12:57.510Z,18.10
2018-05-19T11:17:56.783Z,17.43
2018-05-19T11:20:24.563Z,15.93
2018-05-19T11:22:52.979Z,17.07
2018-05-19T11:25:20.450Z,16.60
2018-05-19T11:27:47.849Z,16.50
2018-05-19T11:30:15.454Z,13.73
2018-05-19T11:32:42.926Z,12.50
2018-05-19T11:37:42.196Z,9.10
2018-05-19T11:40:09.677Z,14.00
2018-05-19T11:42:37.357Z,10.53
2018-05-19T11:47:39.324Z,10.00
2018-05-19T11:52:38.448Z,9.00
2018-05-19T11:55:05.808Z,9.00
2018-05-19T11:57:35.216Z,9.40
2018-05-19T12:00:02.790Z,9.83
2018-05-19T12:02:30.398Z,9.73
2018-05-19T12:04:57.829Z,8.70
2018-05-19T12:07:25.222Z,7.83
2018-05-19T12:09:52.651Z,9.00
2018-05-19T12:14:51.668Z,10.87
2018-05-19T12:17:19.088Z,11.03
2018-05-19T12:19:46.660Z,10.90
2018-05-19T12:22:14.260Z,10.73
2018-05-19T12:24:42.037Z,10.43
2018-05-19T12:27:09.797Z,11.43
2018-05-19T12:29:37.796Z,10.10
2018-05-19T12:32:05.470Z,10.63
2018-05-19T12:34:38.130Z,11.80
2018-05-19T12:37:09.105Z,12.93
2018-05-19T12:39:37.783Z,13.07
2018-05-19T12:42:06.349Z,11.30
2018-05-19T12:44:34.130Z,11.07
2018-05-19T12:47:01.614Z,11.17
2018-05-19T12:49:30.723Z,11.53
2018-05-19T12:51:58.200Z,13.73
2018-05-19T12:54:29.257Z,12.30
2018-05-19T12:56:56.652Z,12.23
2018-05-19T12:59:23.968Z,11.30
2018-05-19T13:01:52.562Z,11.97
2018-05-19T13:04:20.019Z,10.33
2018-05-19T13:06:47.499Z,10.70
2018-05-19T13:09:15.082Z,10.80
2018-05-19T13:14:14.201Z,10.13
2018-05-19T13:16:41.634Z,9.67
2018-05-19T13:19:09.016Z,9.40
2018-05-19T13:21:36.459Z,9.63
2018-05-19T13:24:03.929Z,8.70
2018-05-19T13:26:31.623Z,8.50
2018-05-19T13:31:46.499Z,9.87
2018-05-19T13:36:46.715Z,8.27
2018-05-19T13:39:14.153Z,7.97
2018-05-19T13:41:41.566Z,9.30
2018-05-19T13:44:09.044Z,7.50
2018-05-19T13:46:36.378Z,8.50
2018-05-19T13:49:03.795Z,11.60
2018-05-19T13:51:31.595Z,11.27
2018-05-19T13:53:59.199Z,10.83
2018-05-19T13:56:28.899Z,11.20
2018-05-19T13:58:57.041Z,10.30
2018-05-19T14:04:10.163Z,11.20
2018-05-19T14:09:11.910Z,11.53
2018-05-19T14:11:39.355Z,11.20
2018-05-19T14:14:06.860Z,10.37
2018-05-19T14:16:34.257Z,10.70
2018-05-19T14:19:01.627Z,11.23
2018-05-19T14:24:00.649Z,10.93
2018-05-19T14:26:27.971Z,12.33
2018-05-19T14:28:55.269Z,12.10
2018-05-19T14:31:22.573Z,10.83
2018-05-19T14:33:50.081Z,11.50
2018-05-19T14:36:17.502Z,12.43
2018-05-19T14:38:44.835Z,12.03
2018-05-19T14:41:12.146Z,12.13
2018-05-19T14:46:12.456Z,15.30
2018-05-19T14:48:39.933Z,14.20
2018-05-19T14:51:07.710Z,12.60
2018-05-19T14:53:38.646Z,10.33
2018-05-19T14:56:07.774Z,10.90
2018-05-19T14:58:35.133Z,10.57
2018-05-19T15:01:02.465Z,9.33
2018-05-19T15:03:30.393Z,12.07
2018-05-19T15:05:57.750Z,10.77
2018-05-19T15:13:33.423Z,11.77
2018-05-19T15:16:00.752Z,11.67
2018-05-19T15:18:28.154Z,12.53
2018-05-19T15:20:55.569Z,11.93
2018-05-19T15:23:22.988Z,12.47
2018-05-19T15:39:49.368Z,8.33
2018-05-19T15:42:16.757Z,7.63
2018-05-19T15:47:15.759Z,8.87
2018-05-19T15:49:43.320Z,9.70
2018-05-19T15:52:11.355Z,10.37
2018-05-19T15:54:39.197Z,9.47
2018-05-19T15:57:06.655Z,8.60
2018-05-19T15:59:39.292Z,9.90
2018-05-19T16:02:06.776Z,7.87
2018-05-19T16:04:34.329Z,7.60
2018-05-19T16:07:01.712Z,7.17
2018-05-19T16:09:29.245Z,7.30
2018-05-19T16:12:10.804Z,7.00
2018-05-19T16:22:40.793Z,6.60
2018-05-19T16:25:08.335Z,5.83
2018-05-19T16:27:36.623Z,6.43
2018-05-19T16:30:04.171Z,6.73
2018-05-19T16:32:31.681Z,6.10
2018-05-19T16:34:59.299Z,7.33
2018-05-19T16:37:26.637Z,8.13
2018-05-19T16:39:54.081Z,7.00
2018-05-19T16:42:22.493Z,8.03
2018-05-19T16:44:49.797Z,7.80
2018-05-19T16:47:17.309Z,7.90
2018-05-19T16:49:44.658Z,8.43
2018-05-19T16:52:12.099Z,9.07
2018-05-19T16:54:39.672Z,9.00
2018-05-19T16:57:07.009Z,10.97
2018-05-19T16:59:36.704Z,8.93
2018-05-19T17:02:09.759Z,9.53
2018-05-19T17:04:38.211Z,9.90
2018-05-19T17:07:05.695Z,9.50
2018-05-19T17:09:34.335Z,9.23
2018-05-19T17:14:33.839Z,9.40
2018-05-19T17:17:01.266Z,10.03
2018-05-19T17:19:28.662Z,11.80
2018-05-19T17:21:56.040Z,10.37
2018-05-19T17:24:23.607Z,9.63
2018-05-19T17:26:51.020Z,10.53
2018-05-19T17:29:18.396Z,10.97
2018-05-19T17:31:46.096Z,10.50
2018-05-19T17:34:13.623Z,12.27
2018-05-19T17:36:41.408Z,11.80
2018-05-19T17:39:09.944Z,13.00
2018-05-19T17:41:38.650Z,13.57
2018-05-19T17:44:06.392Z,12.60
2018-05-19T17:46:33.686Z,16.17
2018-05-19T17:49:01.059Z,14.57
2018-05-19T17:51:28.539Z,12.83
2018-05-19T17:53:55.931Z,14.30
2018-05-19T17:56:23.251Z,14.63
2018-05-19T17:58:50.550Z,14.47
2018-05-19T18:01:17.851Z,13.97
2018-05-19T18:03:45.345Z,15.87
2018-05-19T18:06:12.719Z,12.47
2018-05-19T18:08:40.168Z,12.40
2018-05-19T18:11:09.747Z,12.10
2018-05-19T18:13:37.995Z,13.87
2018-05-19T18:16:05.567Z,14.20
2018-05-19T18:18:32.852Z,15.70
2018-05-19T18:21:00.482Z,13.57
2018-05-19T18:23:28.148Z,14.93
2018-05-19T18:25:55.518Z,16.43
2018-05-19T18:28:22.980Z,18.27
2018-05-19T18:30:50.385Z,18.10
2018-05-19T18:33:17.711Z,16.80
2018-05-19T18:35:47.646Z,16.73
2018-05-19T18:38:15.053Z,17.87
2018-05-19T18:40:42.552Z,18.93
2018-05-19T18:45:42.127Z,19.07
2018-05-19T18:48:09.674Z,21.70
2018-05-19T18:50:37.250Z,21.00
2018-05-19T18:53:04.830Z,19.20
2018-05-19T18:55:32.226Z,19.53
2018-05-19T18:58:01.326Z,19.17
2018-05-19T19:00:28.869Z,21.50
2018-05-19T19:02:56.358Z,22.50
2018-05-19T19:05:23.733Z,20.50
2018-05-19T19:07:51.076Z,21.37
2018-05-19T19:10:18.774Z,20.67
2018-05-19T19:12:46.177Z,20.30
2018-05-19T19:15:14.128Z,21.33
2018-05-19T19:17:41.667Z,21.70
2018-05-19T19:20:09.043Z,21.10
2018-05-19T19:22:36.628Z,22.70
2018-05-19T19:25:04.001Z,22.10
2018-05-19T19:27:31.543Z,22.37
2018-05-19T19:29:58.937Z,23.27
2018-05-19T19:32:26.314Z,25.80
2018-05-19T19:34:53.672Z,25.13
2018-05-19T19:37:21.020Z,27.00
2018-05-19T19:39:48.353Z,26.57
2018-05-19T19:42:15.823Z,27.30
2018-05-19T19:47:15.081Z,27.20
2018-05-19T19:49:42.692Z,30.07
2018-05-19T19:52:10.400Z,31.55
2018-05-19T19:54:38.052Z,32.00
2018-05-19T19:57:09.337Z,29.37
2018-05-19T19:59:36.847Z,25.77
2018-05-19T20:02:04.379Z,28.20
2018-05-19T20:09:40.543Z,27.77
2018-05-19T20:12:08.442Z,26.70
2018-05-19T20:14:35.853Z,25.13
2018-05-19T20:17:03.232Z,25.60
2018-05-19T20:19:30.667Z,27.60
2018-05-19T20:24:34.767Z,23.70
2018-05-19T20:27:02.294Z,22.27
2018-05-19T20:29:31.812Z,22.67
2018-05-19T20:31:59.218Z,23.80
2018-05-19T20:34:26.533Z,22.30
2018-05-19T20:36:53.883Z,22.47
2018-05-19T20:39:21.489Z,24.03
2018-05-19T20:41:48.888Z,22.50
2018-05-19T20:44:16.253Z,25.00
2018-05-19T20:46:43.730Z,24.20
2018-05-19T20:49:11.196Z,20.87
2018-05-19T20:51:38.631Z,24.80
2018-05-19T20:54:05.958Z,27.50
2018-05-19T20:56:33.324Z,23.57
2018-05-19T20:59:00.817Z,24.07
2018-05-19T21:01:28.197Z,24.40
2018-05-19T21:03:55.505Z,23.57
2018-05-19T21:06:22.947Z,25.40
2018-05-19T21:08:50.307Z,20.60
2018-05-19T21:11:17.736Z,22.50
2018-05-19T21:13:45.288Z,20.60
2018-05-19T21:16:12.779Z,23.60
2018-05-19T21:18:41.068Z,24.50
2018-05-19T21:21:08.435Z,22.70
2018-05-19T21:23:35.766Z,26.17
2018-05-19T21:26:03.696Z,25.33
2018-05-19T21:28:31.073Z,27.53
2018-05-19T21:30:58.396Z,23.53
2018-05-19T21:33:25.692Z,27.43
2018-05-19T21:35:53.065Z,25.53
2018-05-19T21:38:20.404Z,21.37
2018-05-19T21:40:47.898Z,25.20
2018-05-19T21:43:15.642Z,21.70
2018-05-19T21:45:43.239Z,23.00
2018-05-19T21:48:10.746Z,23.77
2018-05-19T21:50:40.348Z,26.17
2018-05-19T21:53:09.176Z,22.97
2018-05-19T21:55:37.943Z,25.47
2018-05-19T21:58:05.399Z,22.80
2018-05-19T22:00:33.790Z,24.73
2018-05-19T22:03:01.090Z,26.00
2018-05-19T22:05:28.484Z,25.67
2018-05-19T22:07:55.769Z,22.87
2018-05-19T22:10:23.089Z,23.10
2018-05-19T22:12:50.385Z,22.00
2018-05-19T22:15:17.925Z,23.73
2018-05-19T22:17:45.339Z,25.43
2018-05-19T22:20:12.741Z,26.90
2018-05-19T22:22:40.109Z,27.90
2018-05-19T22:25:07.466Z,28.80
2018-05-19T22:27:35.276Z,27.30
2018-05-19T22:30:02.698Z,29.70
2018-05-19T22:32:30.008Z,29.43
2018-05-19T22:34:57.302Z,29.30
2018-05-19T22:37:24.614Z,30.37
2018-05-19T22:39:51.910Z,29.67
2018-05-19T22:42:19.220Z,26.60
2018-05-19T22:44:46.592Z,29.00
2018-05-19T22:47:14.315Z,30.87
2018-05-19T22:49:41.934Z,29.60
2018-05-19T22:52:09.846Z,29.97
2018-05-19T22:54:37.302Z,29.77
2018-05-19T22:57:04.715Z,29.17
2018-05-19T22:59:32.153Z,29.07
2018-05-19T23:01:59.768Z,30.30
2018-05-19T23:04:27.095Z,30.17
2018-05-19T23:06:54.415Z,29.50
2018-05-19T23:09:21.719Z,30.97
2018-05-19T23:11:49.693Z,29.53
2018-05-19T23:14:17.114Z,32.27
2018-05-19T23:16:44.526Z,31.27
2018-05-19T23:19:11.913Z,32.97
2018-05-19T23:21:39.419Z,29.97
2018-05-19T23:24:06.711Z,32.30
2018-05-19T23:26:34.023Z,30.93
2018-05-19T23:29:01.325Z,31.30
2018-05-19T23:31:28.743Z,32.37
2018-05-19T23:33:56.023Z,31.13
2018-05-19T23:38:57.682Z,32.80
2018-05-19T23:41:24.981Z,31.93
2018-05-19T23:43:52.290Z,31.50
2018-05-19T23:46:19.855Z,30.13
2018-05-19T23:48:47.250Z,32.03
2018-05-19T23:51:14.686Z,31.10
2018-05-19T23:53:42.196Z,31.60
2018-05-19T23:56:09.545Z,28.90
2018-05-19T23:58:36.964Z,26.53
